Terminal Aerodrome Forecast
Issued by NWS Wilmington, NC

Home | Current Version | Previous Version | Text Only | Print | Product List | Glossary On
Versions: 1 2 3 4 5 6 7 8 9 10 11 12 13 14 15 16 17 18 19 20 21 22 23
515
FTUS42 KILM 262334
TAFMYR
TAF
KMYR 262334Z 2700/2724 12006KT P6SM VCSH FEW020 BKN120
     FM271000 01004KT 4SM BR SCT025
     FM271400 01007KT P6SM VCSH SCT025 BKN050 OVC100
     FM271800 11008KT P6SM VCSH BKN050
      AMD LTD TO CLD VIS AND WIND 2703/2710=

USA.gov is the U.S. government's official web portal to all federal, state and local government web resources and services.